TUN weather

Tunis Carthage International Airport
Tunis, Tunis Governorate, Tunisia

Public forecast

Using degrees Celsius for public forecast. Weather courtesy of forecast.io.

METAR (pilot weather report)

Retrieved 2019/04/22 18:00 UTC (2 minutes ago):

DTTA 221800Z 33010KT 300V360 7000 SCT020 18/12 Q1000

TAF (pilot weather forecast)

Retrieved 2019/04/22 18:00 UTC (2 minutes ago):

TAF DTTA 221700Z 2218/2318 33018KT 6000 SCT020 PROB40 TEMPO 2216/2220 4000 -SHRA SCT020TCU BECMG 2219/2221 22008KT BECMG 2300/2202 16008KT BECMG 2313/2315 06010KT 9999 SCT023 TEMPO 2314/2317 4000 TS SHRA FEW026CB